This is the latest recevied weather packets stored in our database for station/object AD8BV. If no packets are shown the sender has not sent any weather packets the latest 1 day(s).
| Time | Temp. | Humidity | Pressure | Rain* | Wind** | Luminosity | Snow |
|---|---|---|---|---|---|---|---|
| 1778092466 | 11.67° C | 47% | 1014.4 hPa | 0 mm | - | 266 W/m² | - |
| 1778091256 | 11.11° C | 49% | 1014.3 hPa | 0 mm | - | 424 W/m² | - |
| 1778090346 | 10.56° C | 49% | 1014.2 hPa | 0 mm | - | 217 W/m² | - |
| 1778088528 | 11.11° C | 48% | 1014.7 hPa | 0 mm | - | 177 W/m² | - |
| 1778087922 | 11.67° C | 47% | 1014.7 hPa | 0 mm | - | 513 W/m² | - |
| 1778087619 | 11.11° C | 47% | 1014.8 hPa | 0 mm | - | 517 W/m² | - |
| 1778087012 | 11.11° C | 48% | 1014.9 hPa | 0 mm | - | 344 W/m² | - |
| 1778082766 | 10° C | 48% | 1014.7 hPa | 0 mm | - | 252 W/m² | - |
| 1778078004 | 9.44° C | 56% | 1014.2 hPa | 0 mm | - | 317 W/m² | - |
| 1778076796 | 8.89° C | 57% | 1013.9 hPa | 0 mm | - | 296 W/m² | - |
| 1778076190 | 8.89° C | 57% | 1014 hPa | 0 mm | - | 177 W/m² | - |
| 1778075280 | 8.89° C | 59% | 1013.7 hPa | 0 mm | - | 355 W/m² | - |
| 1778074067 | 7.78° C | 60% | 1013.8 hPa | 0 mm | - | 199 W/m² | - |
| 1778073159 | 7.78° C | 62% | 1013.7 hPa | 0 mm | - | 210 W/m² | - |
| 1778072855 | 7.78° C | 62% | 1013.7 hPa | 0 mm | - | 213 W/m² | - |
| 1778072552 | 7.78° C | 62% | 1013.5 hPa | 0 mm | - | 291 W/m² | - |
| 1778072250 | 7.78° C | 61% | 1013.6 hPa | 0 mm | - | 98 W/m² | - |
| 1778070740 | 7.22° C | 62% | 1013.2 hPa | 0 mm | - | 192 W/m² | - |
| 1778070133 | 6.67° C | 65% | 1013 hPa | 0 mm | - | 74 W/m² | - |
| 1778069527 | 6.67° C | 66% | 1013.1 hPa | 0 mm | - | 71 W/m² | - |
| 1778069225 | 6.11° C | 67% | 1012.7 hPa | 0 mm | - | 72 W/m² | - |
| 1778068922 | 6.67° C | 68% | 1012.7 hPa | 0 mm | - | 46 W/m² | - |
| 1778068015 | 5.56° C | 71% | 1012.6 hPa | 0 mm | - | 60 W/m² | - |
| 1778067713 | 5.56° C | 73% | 1012.6 hPa | 0 mm | - | 35 W/m² | - |
| 1778066804 | 5° C | 77% | 1012.4 hPa | 0 mm | - | 26 W/m² | - |
* Rain latest hour (hover to see other rain measurements)
** Current wind speed in m/s (hover to see current wind gust speed)